Dubai Fortune — H9SA — position and weather

sailwx.info

Track history (hours):
 
Tides and Currents Weather Stations Pressure Air Temp Water Temp Dewpoint Dewpoint Depression Visibility Wind Speed Wind Dir Waves Ship Positions

Dubai Fortune

Last reported at 2018-Apr-07 05:26 UTC. Time now 2018-Apr-19 17:15 UTC.
Position N 01°21' E 103°17'.
Warning: this ship's position is 12 days out of date.

Length 188 m; draft 11.8 m.

Type: Cargo ship. MMSI: 353316000.

Date/timePositionNaut miles runAvg speedWind from/ knotsBaromVisibWave heightAir tempDewpointWater temp
2018-Apr-07 05:26N 01°21' E 103°17'611.3
2018-Apr-07 04:52N 01°17' E 103°22'511.5
2018-Apr-07 04:25N 01°14' E 103°26'511.9
2018-Apr-07 03:59N 01°13' E 103°31'611.8
2018-Apr-07 03:30N 01°11' E 103°37'611.3
2018-Apr-07 02:59N 01°09' E 103°42'5 9.4
2018-Apr-07 02:30N 01°10' E 103°47'510.6
2018-Apr-07 02:01N 01°12' E 103°52'610.9
2018-Apr-07 01:29N 01°14' E 103°57'3 6.2
2018-Apr-07 01:00N 01°16' E 103°59'1 0.9
2018-Apr-07 00:10N 01°17' E 103°59'0 0.0
2018-Apr-06 23:40N 01°17' E 103°59'0 0.0
2018-Apr-06 23:27N 01°17' E 103°59'0 0.0
2018-Apr-06 22:22N 01°17' E 103°59'0 0.0
2018-Apr-06 21:45N 01°17' E 103°59'0 0.1
2018-Apr-06 20:18N 01°17' E 103°59'0 0.0
2018-Apr-06 16:28N 01°17' E 103°58'0 0.1
2018-Apr-06 15:56N 01°17' E 103°58'0 0.8
2018-Apr-06 15:22N 01°17' E 103°58'1 2.3
2018-Apr-06 14:59N 01°16' E 103°58'3 4.7
2018-Apr-06 14:27N 01°16' E 104°00'  
Track history (hours):
 
Tides and Currents Weather Stations Pressure Air Temp Water Temp Dewpoint Dewpoint Depression Visibility Wind Speed Wind Dir Waves Ship Positions

Dubai Fortune

Last reported at 2018-Apr-07 05:26 UTC. Time now 2018-Apr-19 17:15 UTC.
Position N 01°21' E 103°17'.
Warning: this ship's position is 12 days out of date.

Length 188 m; draft 11.8 m.

Type: Cargo ship. MMSI: 353316000.

Date/timePositionNaut miles runAvg speedWind from/ knotsBaromVisibWave heightAir tempDewpointWater temp
2018-Apr-07 05:26N 01°21' E 103°17'611.3
2018-Apr-07 04:52N 01°17' E 103°22'511.5
2018-Apr-07 04:25N 01°14' E 103°26'511.9
2018-Apr-07 03:59N 01°13' E 103°31'611.8
2018-Apr-07 03:30N 01°11' E 103°37'611.3
2018-Apr-07 02:59N 01°09' E 103°42'5 9.4
2018-Apr-07 02:30N 01°10' E 103°47'510.6
2018-Apr-07 02:01N 01°12' E 103°52'610.9
2018-Apr-07 01:29N 01°14' E 103°57'3 6.2
2018-Apr-07 01:00N 01°16' E 103°59'1 0.9
2018-Apr-07 00:10N 01°17' E 103°59'0 0.0
2018-Apr-06 23:40N 01°17' E 103°59'0 0.0
2018-Apr-06 23:27N 01°17' E 103°59'0 0.0
2018-Apr-06 22:22N 01°17' E 103°59'0 0.0
2018-Apr-06 21:45N 01°17' E 103°59'0 0.1
2018-Apr-06 20:18N 01°17' E 103°59'0 0.0
2018-Apr-06 16:28N 01°17' E 103°58'0 0.1
2018-Apr-06 15:56N 01°17' E 103°58'0 0.8
2018-Apr-06 15:22N 01°17' E 103°58'1 2.3
2018-Apr-06 14:59N 01°16' E 103°58'3 4.7
2018-Apr-06 14:27N 01°16' E 104°00'  

Dump ship's entire track history